sensor_id;sensor_type;location;lat;lon;timestamp;P1;durP1;ratioP1;P2;durP2;ratioP2
33190;SDS011;19554;42.652;23.364;2024-02-21T00:00:05;8.98;;;6.88;;
33190;SDS011;19554;42.652;23.364;2024-02-21T00:02:31;10.13;;;7.35;;
33190;SDS011;19554;42.652;23.364;2024-02-21T00:04:56;8.95;;;6.85;;
33190;SDS011;19554;42.652;23.364;2024-02-21T00:07:22;10.02;;;7.25;;
33190;SDS011;19554;42.652;23.364;2024-02-21T00:09:47;9.82;;;7.03;;
33190;SDS011;19554;42.652;23.364;2024-02-21T00:12:13;9.48;;;6.97;;
33190;SDS011;19554;42.652;23.364;2024-02-21T00:14:39;10.77;;;7.13;;
33190;SDS011;19554;42.652;23.364;2024-02-21T00:17:05;9.55;;;6.65;;
33190;SDS011;19554;42.652;23.364;2024-02-21T00:19:31;9.90;;;7.35;;
33190;SDS011;19554;42.652;23.364;2024-02-21T00:21:56;10.43;;;7.45;;
33190;SDS011;19554;42.652;23.364;2024-02-21T00:24:22;8.93;;;6.43;;
33190;SDS011;19554;42.652;23.364;2024-02-21T00:26:47;10.23;;;6.85;;
33190;SDS011;19554;42.652;23.364;2024-02-21T00:29:13;10.20;;;6.97;;
33190;SDS011;19554;42.652;23.364;2024-02-21T00:31:38;10.52;;;7.63;;
33190;SDS011;19554;42.652;23.364;2024-02-21T00:34:04;9.88;;;7.10;;
33190;SDS011;19554;42.652;23.364;2024-02-21T00:36:29;9.80;;;7.10;;
33190;SDS011;19554;42.652;23.364;2024-02-21T00:38:55;9.48;;;7.03;;
33190;SDS011;19554;42.652;23.364;2024-02-21T00:41:20;10.68;;;7.25;;
33190;SDS011;19554;42.652;23.364;2024-02-21T00:43:46;10.27;;;7.03;;
33190;SDS011;19554;42.652;23.364;2024-02-21T00:46:13;9.55;;;6.60;;
33190;SDS011;19554;42.652;23.364;2024-02-21T00:48:39;8.48;;;6.38;;
33190;SDS011;19554;42.652;23.364;2024-02-21T00:51:04;8.68;;;6.40;;
33190;SDS011;19554;42.652;23.364;2024-02-21T00:53:30;8.80;;;6.63;;
33190;SDS011;19554;42.652;23.364;2024-02-21T00:55:55;8.23;;;6.18;;
33190;SDS011;19554;42.652;23.364;2024-02-21T00:58:22;8.93;;;6.72;;
33190;SDS011;19554;42.652;23.364;2024-02-21T01:00:47;7.25;;;5.68;;
33190;SDS011;19554;42.652;23.364;2024-02-21T01:03:13;8.68;;;6.15;;
33190;SDS011;19554;42.652;23.364;2024-02-21T01:05:38;8.05;;;6.15;;
33190;SDS011;19554;42.652;23.364;2024-02-21T01:08:04;7.63;;;5.70;;
33190;SDS011;19554;42.652;23.364;2024-02-21T01:10:30;9.38;;;6.03;;
33190;SDS011;19554;42.652;23.364;2024-02-21T01:12:55;8.75;;;6.63;;
33190;SDS011;19554;42.652;23.364;2024-02-21T01:15:21;10.00;;;6.78;;
33190;SDS011;19554;42.652;23.364;2024-02-21T01:17:46;8.43;;;6.95;;
33190;SDS011;19554;42.652;23.364;2024-02-21T01:20:12;10.45;;;6.80;;
33190;SDS011;19554;42.652;23.364;2024-02-21T01:22:38;8.77;;;6.75;;
33190;SDS011;19554;42.652;23.364;2024-02-21T01:25:03;10.13;;;6.95;;
33190;SDS011;19554;42.652;23.364;2024-02-21T01:27:29;9.25;;;7.00;;
33190;SDS011;19554;42.652;23.364;2024-02-21T01:29:55;9.18;;;7.18;;
33190;SDS011;19554;42.652;23.364;2024-02-21T01:32:21;9.85;;;7.75;;
33190;SDS011;19554;42.652;23.364;2024-02-21T01:34:47;8.80;;;6.63;;
33190;SDS011;19554;42.652;23.364;2024-02-21T01:37:12;10.40;;;7.63;;
33190;SDS011;19554;42.652;23.364;2024-02-21T01:39:38;11.15;;;6.95;;
33190;SDS011;19554;42.652;23.364;2024-02-21T01:42:03;10.18;;;7.38;;
33190;SDS011;19554;42.652;23.364;2024-02-21T01:44:29;9.93;;;6.53;;
33190;SDS011;19554;42.652;23.364;2024-02-21T01:46:54;9.38;;;7.10;;
33190;SDS011;19554;42.652;23.364;2024-02-21T01:49:20;10.35;;;7.75;;
33190;SDS011;19554;42.652;23.364;2024-02-21T01:51:47;8.73;;;6.88;;
33190;SDS011;19554;42.652;23.364;2024-02-21T01:54:13;10.25;;;8.05;;
33190;SDS011;19554;42.652;23.364;2024-02-21T01:56:40;10.95;;;8.60;;
33190;SDS011;19554;42.652;23.364;2024-02-21T01:59:07;10.52;;;7.90;;
33190;SDS011;19554;42.652;23.364;2024-02-21T02:01:33;11.75;;;8.32;;
33190;SDS011;19554;42.652;23.364;2024-02-21T02:03:59;11.68;;;8.02;;
33190;SDS011;19554;42.652;23.364;2024-02-21T02:06:24;12.20;;;8.30;;
33190;SDS011;19554;42.652;23.364;2024-02-21T02:08:50;12.45;;;8.45;;
33190;SDS011;19554;42.652;23.364;2024-02-21T02:11:16;12.57;;;8.15;;
33190;SDS011;19554;42.652;23.364;2024-02-21T02:13:42;10.82;;;8.27;;
33190;SDS011;19554;42.652;23.364;2024-02-21T02:16:07;15.65;;;11.40;;
33190;SDS011;19554;42.652;23.364;2024-02-21T02:18:33;17.98;;;12.18;;
33190;SDS011;19554;42.652;23.364;2024-02-21T02:20:58;14.77;;;10.07;;
33190;SDS011;19554;42.652;23.364;2024-02-21T02:23:30;14.02;;;9.68;;
33190;SDS011;19554;42.652;23.364;2024-02-21T02:25:57;13.93;;;9.77;;
33190;SDS011;19554;42.652;23.364;2024-02-21T02:28:23;14.93;;;11.05;;
33190;SDS011;19554;42.652;23.364;2024-02-21T02:30:48;16.13;;;11.90;;
33190;SDS011;19554;42.652;23.364;2024-02-21T02:33:14;17.13;;;11.02;;
33190;SDS011;19554;42.652;23.364;2024-02-21T02:35:42;16.95;;;12.43;;
33190;SDS011;19554;42.652;23.364;2024-02-21T02:38:08;14.85;;;10.77;;
33190;SDS011;19554;42.652;23.364;2024-02-21T02:40:34;18.23;;;11.55;;
33190;SDS011;19554;42.652;23.364;2024-02-21T02:43:00;17.27;;;12.02;;
33190;SDS011;19554;42.652;23.364;2024-02-21T02:45:26;19.05;;;12.30;;
33190;SDS011;19554;42.652;23.364;2024-02-21T02:47:52;17.08;;;11.05;;
33190;SDS011;19554;42.652;23.364;2024-02-21T02:50:25;14.75;;;11.05;;
33190;SDS011;19554;42.652;23.364;2024-02-21T02:52:51;17.25;;;11.45;;
33190;SDS011;19554;42.652;23.364;2024-02-21T02:55:18;17.80;;;12.32;;
33190;SDS011;19554;42.652;23.364;2024-02-21T02:57:44;17.90;;;11.48;;
33190;SDS011;19554;42.652;23.364;2024-02-21T03:00:10;19.23;;;12.70;;
33190;SDS011;19554;42.652;23.364;2024-02-21T03:02:37;17.67;;;12.10;;
33190;SDS011;19554;42.652;23.364;2024-02-21T03:05:11;19.27;;;12.90;;
33190;SDS011;19554;42.652;23.364;2024-02-21T03:07:41;20.75;;;12.70;;
33190;SDS011;19554;42.652;23.364;2024-02-21T03:10:07;19.77;;;13.40;;
33190;SDS011;19554;42.652;23.364;2024-02-21T03:12:34;20.35;;;13.32;;
33190;SDS011;19554;42.652;23.364;2024-02-21T03:14:59;19.40;;;12.93;;
33190;SDS011;19554;42.652;23.364;2024-02-21T03:17:25;19.95;;;13.73;;
33190;SDS011;19554;42.652;23.364;2024-02-21T03:19:52;18.70;;;13.30;;
33190;SDS011;19554;42.652;23.364;2024-02-21T03:22:17;19.60;;;13.85;;
33190;SDS011;19554;42.652;23.364;2024-02-21T03:24:43;18.20;;;12.75;;
33190;SDS011;19554;42.652;23.364;2024-02-21T03:27:09;19.23;;;12.98;;
33190;SDS011;19554;42.652;23.364;2024-02-21T03:29:34;18.45;;;12.85;;
33190;SDS011;19554;42.652;23.364;2024-02-21T03:32:00;18.17;;;12.48;;
33190;SDS011;19554;42.652;23.364;2024-02-21T03:34:25;18.45;;;12.55;;
33190;SDS011;19554;42.652;23.364;2024-02-21T03:36:51;18.50;;;12.77;;
33190;SDS011;19554;42.652;23.364;2024-02-21T03:39:16;19.33;;;13.02;;
33190;SDS011;19554;42.652;23.364;2024-02-21T03:41:42;19.75;;;12.75;;
33190;SDS011;19554;42.652;23.364;2024-02-21T03:44:07;22.13;;;13.77;;
33190;SDS011;19554;42.652;23.364;2024-02-21T03:46:33;18.63;;;12.35;;
33190;SDS011;19554;42.652;23.364;2024-02-21T03:48:58;17.85;;;12.95;;
33190;SDS011;19554;42.652;23.364;2024-02-21T03:51:25;19.20;;;12.85;;
33190;SDS011;19554;42.652;23.364;2024-02-21T03:53:51;18.23;;;12.70;;
33190;SDS011;19554;42.652;23.364;2024-02-21T03:56:16;17.05;;;11.77;;
33190;SDS011;19554;42.652;23.364;2024-02-21T03:58:42;18.65;;;12.45;;
33190;SDS011;19554;42.652;23.364;2024-02-21T04:01:07;20.73;;;13.85;;
33190;SDS011;19554;42.652;23.364;2024-02-21T04:03:33;20.52;;;13.60;;
33190;SDS011;19554;42.652;23.364;2024-02-21T04:05:59;19.25;;;13.00;;
33190;SDS011;19554;42.652;23.364;2024-02-21T04:08:25;19.17;;;12.90;;
33190;SDS011;19554;42.652;23.364;2024-02-21T04:10:51;19.98;;;13.73;;
33190;SDS011;19554;42.652;23.364;2024-02-21T04:13:16;19.17;;;13.63;;
33190;SDS011;19554;42.652;23.364;2024-02-21T04:15:42;20.67;;;13.55;;
33190;SDS011;19554;42.652;23.364;2024-02-21T04:18:07;17.52;;;12.55;;
33190;SDS011;19554;42.652;23.364;2024-02-21T04:20:33;20.92;;;14.73;;
33190;SDS011;19554;42.652;23.364;2024-02-21T04:23:00;20.55;;;14.35;;
33190;SDS011;19554;42.652;23.364;2024-02-21T04:25:25;20.73;;;14.07;;
33190;SDS011;19554;42.652;23.364;2024-02-21T04:27:51;21.05;;;13.75;;
33190;SDS011;19554;42.652;23.364;2024-02-21T04:30:17;20.52;;;13.88;;
33190;SDS011;19554;42.652;23.364;2024-02-21T04:32:43;23.08;;;14.38;;
33190;SDS011;19554;42.652;23.364;2024-02-21T04:35:08;27.90;;;17.85;;
33190;SDS011;19554;42.652;23.364;2024-02-21T04:37:33;19.48;;;14.23;;
33190;SDS011;19554;42.652;23.364;2024-02-21T04:39:59;19.50;;;13.90;;
33190;SDS011;19554;42.652;23.364;2024-02-21T04:42:25;22.95;;;14.77;;
33190;SDS011;19554;42.652;23.364;2024-02-21T04:44:50;24.80;;;15.73;;
33190;SDS011;19554;42.652;23.364;2024-02-21T04:47:16;24.65;;;15.98;;
33190;SDS011;19554;42.652;23.364;2024-02-21T04:49:41;19.95;;;13.98;;
33190;SDS011;19554;42.652;23.364;2024-02-21T04:52:07;23.35;;;15.07;;
33190;SDS011;19554;42.652;23.364;2024-02-21T04:54:32;20.35;;;14.25;;
33190;SDS011;19554;42.652;23.364;2024-02-21T04:57:00;21.10;;;14.65;;
33190;SDS011;19554;42.652;23.364;2024-02-21T04:59:25;23.30;;;15.25;;
33190;SDS011;19554;42.652;23.364;2024-02-21T05:01:51;24.77;;;16.65;;
33190;SDS011;19554;42.652;23.364;2024-02-21T05:04:17;25.10;;;15.13;;
33190;SDS011;19554;42.652;23.364;2024-02-21T05:06:42;23.08;;;15.30;;
33190;SDS011;19554;42.652;23.364;2024-02-21T05:09:08;24.48;;;15.38;;
33190;SDS011;19554;42.652;23.364;2024-02-21T05:11:34;25.27;;;16.75;;
33190;SDS011;19554;42.652;23.364;2024-02-21T05:14:00;24.48;;;15.75;;
33190;SDS011;19554;42.652;23.364;2024-02-21T05:16:26;25.15;;;16.77;;
33190;SDS011;19554;42.652;23.364;2024-02-21T05:18:52;27.58;;;18.02;;
33190;SDS011;19554;42.652;23.364;2024-02-21T05:21:17;29.38;;;18.55;;
33190;SDS011;19554;42.652;23.364;2024-02-21T05:23:43;28.20;;;17.30;;
33190;SDS011;19554;42.652;23.364;2024-02-21T05:26:08;26.58;;;16.67;;
33190;SDS011;19554;42.652;23.364;2024-02-21T05:28:34;28.33;;;17.50;;
33190;SDS011;19554;42.652;23.364;2024-02-21T05:30:59;24.45;;;16.00;;
33190;SDS011;19554;42.652;23.364;2024-02-21T05:33:25;25.27;;;16.85;;
33190;SDS011;19554;42.652;23.364;2024-02-21T05:35:51;25.88;;;15.80;;
33190;SDS011;19554;42.652;23.364;2024-02-21T05:38:16;27.38;;;17.58;;
33190;SDS011;19554;42.652;23.364;2024-02-21T05:40:44;23.92;;;15.77;;
33190;SDS011;19554;42.652;23.364;2024-02-21T05:43:10;27.50;;;17.88;;
33190;SDS011;19554;42.652;23.364;2024-02-21T05:45:35;27.30;;;16.73;;
33190;SDS011;19554;42.652;23.364;2024-02-21T05:48:01;31.35;;;18.80;;
33190;SDS011;19554;42.652;23.364;2024-02-21T05:50:27;37.53;;;19.20;;
33190;SDS011;19554;42.652;23.364;2024-02-21T05:52:56;37.92;;;21.05;;
33190;SDS011;19554;42.652;23.364;2024-02-21T05:55:22;30.42;;;17.50;;
33190;SDS011;19554;42.652;23.364;2024-02-21T05:57:47;36.17;;;20.13;;
33190;SDS011;19554;42.652;23.364;2024-02-21T06:00:13;39.03;;;21.83;;
33190;SDS011;19554;42.652;23.364;2024-02-21T06:02:40;29.85;;;19.17;;
33190;SDS011;19554;42.652;23.364;2024-02-21T06:05:06;34.97;;;19.58;;
33190;SDS011;19554;42.652;23.364;2024-02-21T06:07:33;32.38;;;19.35;;
33190;SDS011;19554;42.652;23.364;2024-02-21T06:09:59;31.38;;;17.90;;
33190;SDS011;19554;42.652;23.364;2024-02-21T06:12:25;37.33;;;19.15;;
33190;SDS011;19554;42.652;23.364;2024-02-21T06:14:50;31.80;;;17.65;;
33190;SDS011;19554;42.652;23.364;2024-02-21T06:17:16;28.05;;;17.80;;
33190;SDS011;19554;42.652;23.364;2024-02-21T06:19:42;31.73;;;20.48;;
33190;SDS011;19554;42.652;23.364;2024-02-21T06:22:08;32.85;;;18.35;;
33190;SDS011;19554;42.652;23.364;2024-02-21T06:24:34;30.67;;;18.88;;
33190;SDS011;19554;42.652;23.364;2024-02-21T06:27:01;27.25;;;17.80;;
33190;SDS011;19554;42.652;23.364;2024-02-21T06:29:27;27.83;;;17.52;;
33190;SDS011;19554;42.652;23.364;2024-02-21T06:31:53;30.23;;;17.13;;
33190;SDS011;19554;42.652;23.364;2024-02-21T06:34:18;27.80;;;17.67;;
33190;SDS011;19554;42.652;23.364;2024-02-21T06:36:44;32.80;;;18.55;;
33190;SDS011;19554;42.652;23.364;2024-02-21T06:39:10;25.25;;;16.73;;
33190;SDS011;19554;42.652;23.364;2024-02-21T06:41:36;29.23;;;18.20;;
33190;SDS011;19554;42.652;23.364;2024-02-21T06:44:02;25.02;;;17.33;;
33190;SDS011;19554;42.652;23.364;2024-02-21T06:46:28;31.20;;;18.05;;
33190;SDS011;19554;42.652;23.364;2024-02-21T06:48:54;28.98;;;17.95;;
33190;SDS011;19554;42.652;23.364;2024-02-21T06:51:23;28.05;;;18.10;;
33190;SDS011;19554;42.652;23.364;2024-02-21T06:53:49;28.20;;;17.50;;
33190;SDS011;19554;42.652;23.364;2024-02-21T06:56:15;28.50;;;17.80;;
33190;SDS011;19554;42.652;23.364;2024-02-21T06:58:40;30.77;;;18.92;;
33190;SDS011;19554;42.652;23.364;2024-02-21T07:01:06;32.80;;;19.90;;
33190;SDS011;19554;42.652;23.364;2024-02-21T07:03:32;34.15;;;20.75;;
33190;SDS011;19554;42.652;23.364;2024-02-21T07:05:57;39.42;;;21.08;;
33190;SDS011;19554;42.652;23.364;2024-02-21T07:08:23;30.60;;;18.80;;
33190;SDS011;19554;42.652;23.364;2024-02-21T07:10:49;29.50;;;19.25;;
33190;SDS011;19554;42.652;23.364;2024-02-21T07:13:14;33.88;;;19.95;;
33190;SDS011;19554;42.652;23.364;2024-02-21T07:15:40;36.13;;;19.23;;
33190;SDS011;19554;42.652;23.364;2024-02-21T07:18:06;32.78;;;18.00;;
33190;SDS011;19554;42.652;23.364;2024-02-21T07:20:32;30.85;;;18.17;;
33190;SDS011;19554;42.652;23.364;2024-02-21T07:23:02;30.33;;;19.08;;
33190;SDS011;19554;42.652;23.364;2024-02-21T07:25:28;30.08;;;18.58;;
33190;SDS011;19554;42.652;23.364;2024-02-21T07:27:54;32.75;;;18.67;;
33190;SDS011;19554;42.652;23.364;2024-02-21T07:30:19;28.33;;;17.88;;
33190;SDS011;19554;42.652;23.364;2024-02-21T07:32:45;31.17;;;18.60;;
33190;SDS011;19554;42.652;23.364;2024-02-21T07:35:10;28.52;;;18.63;;
33190;SDS011;19554;42.652;23.364;2024-02-21T07:37:37;30.60;;;18.42;;
33190;SDS011;19554;42.652;23.364;2024-02-21T07:40:06;30.77;;;18.90;;
33190;SDS011;19554;42.652;23.364;2024-02-21T07:42:37;31.83;;;17.70;;
33190;SDS011;19554;42.652;23.364;2024-02-21T07:45:02;32.58;;;19.20;;
33190;SDS011;19554;42.652;23.364;2024-02-21T07:47:28;32.53;;;18.58;;
33190;SDS011;19554;42.652;23.364;2024-02-21T07:49:54;33.70;;;18.77;;
33190;SDS011;19554;42.652;23.364;2024-02-21T07:52:19;32.90;;;19.77;;
33190;SDS011;19554;42.652;23.364;2024-02-21T07:54:45;31.80;;;19.27;;
33190;SDS011;19554;42.652;23.364;2024-02-21T07:57:10;31.90;;;20.13;;
33190;SDS011;19554;42.652;23.364;2024-02-21T07:59:36;33.03;;;19.90;;
33190;SDS011;19554;42.652;23.364;2024-02-21T08:02:01;31.85;;;18.00;;
33190;SDS011;19554;42.652;23.364;2024-02-21T08:04:27;30.77;;;17.58;;
33190;SDS011;19554;42.652;23.364;2024-02-21T08:06:53;33.70;;;20.15;;
33190;SDS011;19554;42.652;23.364;2024-02-21T08:09:21;31.15;;;18.80;;
33190;SDS011;19554;42.652;23.364;2024-02-21T08:11:47;32.88;;;20.15;;
33190;SDS011;19554;42.652;23.364;2024-02-21T08:14:14;32.28;;;19.50;;
33190;SDS011;19554;42.652;23.364;2024-02-21T08:16:41;31.00;;;18.48;;
33190;SDS011;19554;42.652;23.364;2024-02-21T08:19:07;29.67;;;18.55;;
33190;SDS011;19554;42.652;23.364;2024-02-21T08:21:32;30.80;;;18.08;;
33190;SDS011;19554;42.652;23.364;2024-02-21T08:23:58;26.27;;;17.52;;
33190;SDS011;19554;42.652;23.364;2024-02-21T08:26:23;28.27;;;17.83;;
33190;SDS011;19554;42.652;23.364;2024-02-21T08:28:52;34.05;;;18.92;;
33190;SDS011;19554;42.652;23.364;2024-02-21T08:31:18;27.55;;;17.52;;
33190;SDS011;19554;42.652;23.364;2024-02-21T08:33:45;25.17;;;16.67;;
33190;SDS011;19554;42.652;23.364;2024-02-21T08:36:17;28.33;;;18.10;;
33190;SDS011;19554;42.652;23.364;2024-02-21T08:38:44;26.15;;;17.08;;
33190;SDS011;19554;42.652;23.364;2024-02-21T08:41:09;24.58;;;16.70;;
33190;SDS011;19554;42.652;23.364;2024-02-21T08:43:35;25.67;;;16.25;;
33190;SDS011;19554;42.652;23.364;2024-02-21T08:46:01;27.77;;;17.50;;
33190;SDS011;19554;42.652;23.364;2024-02-21T08:48:26;25.42;;;16.15;;
33190;SDS011;19554;42.652;23.364;2024-02-21T08:50:52;25.92;;;16.23;;
33190;SDS011;19554;42.652;23.364;2024-02-21T08:53:19;25.52;;;16.73;;
33190;SDS011;19554;42.652;23.364;2024-02-21T08:55:45;25.52;;;17.02;;
33190;SDS011;19554;42.652;23.364;2024-02-21T08:58:11;28.33;;;15.88;;
33190;SDS011;19554;42.652;23.364;2024-02-21T09:00:36;23.90;;;15.57;;
33190;SDS011;19554;42.652;23.364;2024-02-21T09:03:02;25.38;;;15.18;;
33190;SDS011;19554;42.652;23.364;2024-02-21T09:05:28;21.33;;;13.88;;
33190;SDS011;19554;42.652;23.364;2024-02-21T09:07:53;26.33;;;13.93;;
33190;SDS011;19554;42.652;23.364;2024-02-21T09:10:19;22.65;;;14.60;;
33190;SDS011;19554;42.652;23.364;2024-02-21T09:12:45;22.55;;;14.70;;
33190;SDS011;19554;42.652;23.364;2024-02-21T09:15:10;17.95;;;12.60;;
33190;SDS011;19554;42.652;23.364;2024-02-21T09:17:36;22.40;;;13.18;;
33190;SDS011;19554;42.652;23.364;2024-02-21T09:20:01;20.45;;;12.82;;
33190;SDS011;19554;42.652;23.364;2024-02-21T09:22:28;20.65;;;13.43;;
33190;SDS011;19554;42.652;23.364;2024-02-21T09:24:54;23.52;;;14.13;;
33190;SDS011;19554;42.652;23.364;2024-02-21T09:27:20;23.73;;;14.85;;
33190;SDS011;19554;42.652;23.364;2024-02-21T09:29:45;26.17;;;15.55;;
33190;SDS011;19554;42.652;23.364;2024-02-21T09:32:11;21.58;;;14.50;;
33190;SDS011;19554;42.652;23.364;2024-02-21T09:34:37;22.25;;;15.15;;
33190;SDS011;19554;42.652;23.364;2024-02-21T09:37:03;26.55;;;16.02;;
33190;SDS011;19554;42.652;23.364;2024-02-21T09:39:28;23.63;;;16.13;;
33190;SDS011;19554;42.652;23.364;2024-02-21T09:41:58;28.80;;;15.25;;
33190;SDS011;19554;42.652;23.364;2024-02-21T09:44:30;22.55;;;14.90;;
33190;SDS011;19554;42.652;23.364;2024-02-21T09:47:02;20.27;;;14.68;;
33190;SDS011;19554;42.652;23.364;2024-02-21T09:49:33;23.10;;;14.80;;
33190;SDS011;19554;42.652;23.364;2024-02-21T09:52:03;27.60;;;15.95;;
33190;SDS011;19554;42.652;23.364;2024-02-21T09:54:30;26.05;;;15.45;;
33190;SDS011;19554;42.652;23.364;2024-02-21T09:56:56;21.05;;;14.35;;
33190;SDS011;19554;42.652;23.364;2024-02-21T09:59:22;23.40;;;14.70;;
33190;SDS011;19554;42.652;23.364;2024-02-21T10:01:49;23.45;;;14.60;;
33190;SDS011;19554;42.652;23.364;2024-02-21T10:04:16;21.08;;;14.10;;
33190;SDS011;19554;42.652;23.364;2024-02-21T10:06:41;18.42;;;13.15;;
33190;SDS011;19554;42.652;23.364;2024-02-21T10:09:07;18.08;;;12.48;;
33190;SDS011;19554;42.652;23.364;2024-02-21T10:11:34;17.80;;;12.23;;
33190;SDS011;19554;42.652;23.364;2024-02-21T10:14:05;16.38;;;11.52;;
33190;SDS011;19554;42.652;23.364;2024-02-21T10:16:32;14.63;;;11.00;;
33190;SDS011;19554;42.652;23.364;2024-02-21T10:18:58;24.90;;;12.57;;
33190;SDS011;19554;42.652;23.364;2024-02-21T10:21:24;16.40;;;11.50;;
33190;SDS011;19554;42.652;23.364;2024-02-21T10:23:49;17.92;;;11.80;;
33190;SDS011;19554;42.652;23.364;2024-02-21T10:26:19;15.32;;;11.95;;
33190;SDS011;19554;42.652;23.364;2024-02-21T10:28:45;18.08;;;12.13;;
33190;SDS011;19554;42.652;23.364;2024-02-21T10:31:20;17.77;;;11.80;;
33190;SDS011;19554;42.652;23.364;2024-02-21T10:33:55;18.20;;;13.00;;
33190;SDS011;19554;42.652;23.364;2024-02-21T10:36:21;21.85;;;13.30;;
33190;SDS011;19554;42.652;23.364;2024-02-21T10:38:47;16.35;;;12.07;;
33190;SDS011;19554;42.652;23.364;2024-02-21T10:41:13;14.27;;;10.43;;
33190;SDS011;19554;42.652;23.364;2024-02-21T10:43:40;15.90;;;11.15;;
33190;SDS011;19554;42.652;23.364;2024-02-21T10:46:07;15.57;;;11.27;;
33190;SDS011;19554;42.652;23.364;2024-02-21T10:48:41;18.42;;;10.52;;
33190;SDS011;19554;42.652;23.364;2024-02-21T10:51:18;17.88;;;12.25;;
33190;SDS011;19554;42.652;23.364;2024-02-21T10:56:26;17.27;;;11.05;;
33190;SDS011;19554;42.652;23.364;2024-02-21T10:58:54;14.27;;;9.65;;
33190;SDS011;19554;42.652;23.364;2024-02-21T11:01:22;15.55;;;9.85;;
33190;SDS011;19554;42.652;23.364;2024-02-21T11:03:49;13.27;;;8.73;;
33190;SDS011;19554;42.652;23.364;2024-02-21T11:06:18;13.73;;;9.80;;
33190;SDS011;19554;42.652;23.364;2024-02-21T11:08:45;13.73;;;9.80;;
33190;SDS011;19554;42.652;23.364;2024-02-21T11:11:14;13.43;;;9.13;;
33190;SDS011;19554;42.652;23.364;2024-02-21T11:13:45;14.57;;;10.23;;
33190;SDS011;19554;42.652;23.364;2024-02-21T11:16:12;14.85;;;10.23;;
33190;SDS011;19554;42.652;23.364;2024-02-21T11:18:46;18.08;;;9.45;;
33190;SDS011;19554;42.652;23.364;2024-02-21T11:21:12;10.98;;;8.18;;
33190;SDS011;19554;42.652;23.364;2024-02-21T11:23:37;9.45;;;7.25;;
33190;SDS011;19554;42.652;23.364;2024-02-21T11:26:03;11.98;;;8.43;;
33190;SDS011;19554;42.652;23.364;2024-02-21T11:28:32;14.18;;;8.27;;
33190;SDS011;19554;42.652;23.364;2024-02-21T11:31:08;8.90;;;6.53;;
33190;SDS011;19554;42.652;23.364;2024-02-21T11:33:34;7.65;;;6.07;;
33190;SDS011;19554;42.652;23.364;2024-02-21T11:36:01;8.82;;;6.65;;
33190;SDS011;19554;42.652;23.364;2024-02-21T11:38:29;11.48;;;6.85;;
33190;SDS011;19554;42.652;23.364;2024-02-21T11:40:55;11.65;;;7.35;;
33190;SDS011;19554;42.652;23.364;2024-02-21T11:43:20;10.38;;;7.82;;
33190;SDS011;19554;42.652;23.364;2024-02-21T11:45:45;12.55;;;6.90;;
33190;SDS011;19554;42.652;23.364;2024-02-21T11:48:11;11.90;;;6.43;;
33190;SDS011;19554;42.652;23.364;2024-02-21T11:50:37;8.48;;;5.32;;
33190;SDS011;19554;42.652;23.364;2024-02-21T11:53:04;7.45;;;5.57;;
33190;SDS011;19554;42.652;23.364;2024-02-21T11:55:30;10.23;;;6.47;;
33190;SDS011;19554;42.652;23.364;2024-02-21T11:57:55;9.10;;;6.80;;
33190;SDS011;19554;42.652;23.364;2024-02-21T12:00:21;9.40;;;5.72;;
33190;SDS011;19554;42.652;23.364;2024-02-21T12:02:49;8.02;;;5.70;;
33190;SDS011;19554;42.652;23.364;2024-02-21T12:05:15;7.13;;;5.65;;
33190;SDS011;19554;42.652;23.364;2024-02-21T12:07:41;10.05;;;6.10;;
33190;SDS011;19554;42.652;23.364;2024-02-21T12:10:10;7.32;;;5.78;;
33190;SDS011;19554;42.652;23.364;2024-02-21T12:12:36;9.45;;;6.78;;
33190;SDS011;19554;42.652;23.364;2024-02-21T12:15:06;9.68;;;6.93;;
33190;SDS011;19554;42.652;23.364;2024-02-21T12:17:35;12.20;;;6.53;;
33190;SDS011;19554;42.652;23.364;2024-02-21T12:20:02;8.82;;;6.20;;
33190;SDS011;19554;42.652;23.364;2024-02-21T12:22:37;10.05;;;6.40;;
33190;SDS011;19554;42.652;23.364;2024-02-21T12:25:15;10.07;;;6.65;;
33190;SDS011;19554;42.652;23.364;2024-02-21T12:27:43;8.15;;;6.10;;
33190;SDS011;19554;42.652;23.364;2024-02-21T12:30:09;8.57;;;6.05;;
33190;SDS011;19554;42.652;23.364;2024-02-21T12:32:35;9.15;;;6.03;;
33190;SDS011;19554;42.652;23.364;2024-02-21T12:35:01;8.32;;;6.05;;
33190;SDS011;19554;42.652;23.364;2024-02-21T12:37:27;11.00;;;6.28;;
33190;SDS011;19554;42.652;23.364;2024-02-21T12:39:53;14.52;;;7.57;;
33190;SDS011;19554;42.652;23.364;2024-02-21T12:42:18;12.82;;;6.95;;
33190;SDS011;19554;42.652;23.364;2024-02-21T12:44:44;10.73;;;7.25;;
33190;SDS011;19554;42.652;23.364;2024-02-21T12:47:10;14.10;;;7.68;;
33190;SDS011;19554;42.652;23.364;2024-02-21T12:49:35;10.85;;;6.82;;
33190;SDS011;19554;42.652;23.364;2024-02-21T12:52:01;12.18;;;7.28;;
33190;SDS011;19554;42.652;23.364;2024-02-21T12:54:28;17.45;;;7.18;;
33190;SDS011;19554;42.652;23.364;2024-02-21T12:56:55;11.60;;;7.32;;
33190;SDS011;19554;42.652;23.364;2024-02-21T12:59:20;11.48;;;6.95;;
33190;SDS011;19554;42.652;23.364;2024-02-21T13:01:46;10.38;;;7.30;;
33190;SDS011;19554;42.652;23.364;2024-02-21T13:04:11;12.65;;;6.80;;
33190;SDS011;19554;42.652;23.364;2024-02-21T13:06:37;10.57;;;6.68;;
33190;SDS011;19554;42.652;23.364;2024-02-21T13:09:02;10.30;;;6.60;;
33190;SDS011;19554;42.652;23.364;2024-02-21T13:11:32;8.10;;;5.63;;
33190;SDS011;19554;42.652;23.364;2024-02-21T13:13:59;8.70;;;6.60;;
33190;SDS011;19554;42.652;23.364;2024-02-21T13:16:24;8.82;;;7.32;;
33190;SDS011;19554;42.652;23.364;2024-02-21T13:18:51;15.20;;;8.43;;
33190;SDS011;19554;42.652;23.364;2024-02-21T13:21:16;11.95;;;9.02;;
33190;SDS011;19554;42.652;23.364;2024-02-21T13:23:42;13.25;;;8.02;;
33190;SDS011;19554;42.652;23.364;2024-02-21T13:26:09;11.63;;;8.07;;
33190;SDS011;19554;42.652;23.364;2024-02-21T13:28:35;11.93;;;7.88;;
33190;SDS011;19554;42.652;23.364;2024-02-21T13:31:00;13.93;;;8.68;;
33190;SDS011;19554;42.652;23.364;2024-02-21T13:33:26;13.52;;;8.77;;
33190;SDS011;19554;42.652;23.364;2024-02-21T13:35:53;12.50;;;9.10;;
33190;SDS011;19554;42.652;23.364;2024-02-21T13:38:19;14.48;;;8.63;;
33190;SDS011;19554;42.652;23.364;2024-02-21T13:40:44;14.50;;;9.90;;
33190;SDS011;19554;42.652;23.364;2024-02-21T13:43:10;13.18;;;9.82;;
33190;SDS011;19554;42.652;23.364;2024-02-21T13:45:35;12.02;;;8.05;;
33190;SDS011;19554;42.652;23.364;2024-02-21T13:48:01;13.10;;;8.18;;
33190;SDS011;19554;42.652;23.364;2024-02-21T13:50:29;12.70;;;8.18;;
33190;SDS011;19554;42.652;23.364;2024-02-21T13:52:56;12.68;;;7.68;;
33190;SDS011;19554;42.652;23.364;2024-02-21T13:55:22;13.73;;;7.30;;
33190;SDS011;19554;42.652;23.364;2024-02-21T13:57:51;10.32;;;7.68;;
33190;SDS011;19554;42.652;23.364;2024-02-21T14:00:16;16.60;;;7.95;;
33190;SDS011;19554;42.652;23.364;2024-02-21T14:02:43;11.63;;;7.75;;
33190;SDS011;19554;42.652;23.364;2024-02-21T14:05:09;14.88;;;8.48;;
33190;SDS011;19554;42.652;23.364;2024-02-21T14:07:35;12.18;;;8.63;;
33190;SDS011;19554;42.652;23.364;2024-02-21T14:10:01;12.20;;;8.32;;
33190;SDS011;19554;42.652;23.364;2024-02-21T14:12:26;12.65;;;7.90;;